Time;durP1;ratioP1;P1;durP2;ratioP2;P2;SDS_P1;SDS_P2;PMS_P1;PMS_P2;Temp;Humidity;BMP_temperature;BMP_pressure;BME280_temperature;BME280_humidity;BME280_pressure;Samples;Min_cycle;Max_cycle;Signal;HPM_P1;HPM_P2
2021/12/18 00:01:30;;;;;;;6.17;5.23;;;8.90;99.90;;;;;;5081084;28;20613;-80
2021/12/18 00:03:56;;;;;;;7.73;5.40;;;8.70;99.90;;;;;;5082063;28;21233;-81
2021/12/18 00:06:22;;;;;;;6.80;5.20;;;8.70;99.90;;;;;;5072065;28;20187;-81
2021/12/18 00:08:48;;;;;;;7.10;4.80;;;8.70;99.90;;;;;;5058430;28;20609;-79
2021/12/18 00:11:14;;;;;;;5.57;4.40;;;8.70;99.90;;;;;;5060108;28;20223;-79
2021/12/18 00:13:40;;;;;;;6.10;4.80;;;8.70;99.90;;;;;;5046862;28;20645;-83
2021/12/18 00:16:06;;;;;;;6.30;4.53;;;8.70;99.90;;;;;;5046695;28;20187;-80
2021/12/18 00:18:35;;;;;;;6.93;4.40;;;8.60;99.90;;;;;;5062062;28;20202;-80
2021/12/18 00:21:07;;;;;;;5.43;3.73;;;8.70;99.90;;;;;;5061741;28;20664;-79
2021/12/18 00:23:32;;;;;;;6.93;4.00;;;8.70;99.90;;;;;;5061515;28;20625;-79
2021/12/18 00:25:58;;;;;;;6.03;4.40;;;8.70;99.90;;;;;;5053287;28;20671;-80
2021/12/18 00:28:29;;;;;;;5.50;4.03;;;8.70;99.90;;;;;;5047728;28;21822;-79
2021/12/18 00:30:54;;;;;;;6.60;4.27;;;8.70;99.90;;;;;;5057891;28;20257;-79
2021/12/18 00:33:20;;;;;;;4.60;3.60;;;8.70;99.90;;;;;;5060205;28;21190;-80
2021/12/18 00:35:45;;;;;;;5.07;3.70;;;8.80;99.90;;;;;;5049113;28;20232;-81
2021/12/18 00:38:11;;;;;;;4.53;3.37;;;8.70;99.90;;;;;;5043004;28;20270;-79
2021/12/18 00:41:10;;;;;;;4.50;3.33;;;8.70;99.90;;;;;;5044085;28;20730;-80
2021/12/18 00:43:40;;;;;;;5.53;4.20;;;8.70;99.90;;;;;;5072565;28;20218;-81
2021/12/18 00:46:06;;;;;;;4.03;3.33;;;8.70;99.90;;;;;;5064811;28;20570;-79
2021/12/18 00:48:32;;;;;;;5.13;3.80;;;8.70;99.90;;;;;;5070142;28;20635;-78
2021/12/18 00:50:58;;;;;;;6.43;4.00;;;9.00;99.90;;;;;;5053435;28;20994;-80
2021/12/18 00:53:23;;;;;;;5.00;3.57;;;8.70;99.90;;;;;;5075223;28;20210;-81
2021/12/18 00:55:51;;;;;;;4.47;3.63;;;8.70;99.90;;;;;;5083464;28;20235;-81
2021/12/18 00:58:17;;;;;;;6.07;4.27;;;8.70;99.90;;;;;;5085280;28;20268;-81
2021/12/18 01:00:44;;;;;;;5.03;3.70;;;8.70;99.90;;;;;;5074430;28;21057;-79
2021/12/18 01:03:18;;;;;;;5.07;3.70;;;8.70;99.90;;;;;;5083924;28;20605;-80
2021/12/18 01:05:49;;;;;;;4.20;3.50;;;8.70;99.90;;;;;;5085308;28;20633;-82
2021/12/18 01:08:17;;;;;;;6.60;4.20;;;8.70;99.90;;;;;;5075709;28;20615;-79
2021/12/18 01:13:16;;;;;;;4.30;2.97;;;8.70;99.90;;;;;;5073747;28;20687;-79
2021/12/18 01:15:48;;;;;;;4.73;2.50;;;8.70;99.90;;;;;;5072950;28;20686;-81
2021/12/18 01:23:45;;;;;;;2.57;2.10;;;8.70;99.90;;;;;;5072297;28;20647;-79
2021/12/18 01:26:13;;;;;;;3.10;2.37;;;8.60;99.90;;;;;;5071105;28;20613;-80
2021/12/18 01:28:38;;;;;;;2.90;2.23;;;9.00;99.90;;;;;;5074952;28;20674;-79
2021/12/18 01:31:04;;;;;;;2.90;2.20;;;8.70;99.90;;;;;;5072507;28;21281;-80
2021/12/18 01:33:30;;;;;;;4.10;2.93;;;8.70;99.90;;;;;;5063656;28;20205;-80
2021/12/18 01:35:59;;;;;;;4.17;2.70;;;8.60;99.90;;;;;;5064627;28;20575;-81
2021/12/18 01:38:25;;;;;;;3.07;2.57;;;8.60;99.90;;;;;;5077227;28;20217;-80
2021/12/18 01:40:51;;;;;;;6.43;4.10;;;8.60;99.90;;;;;;5059116;28;20661;-79
2021/12/18 01:46:15;;;;;;;6.27;3.90;;;8.60;99.90;;;;;;5089292;28;20282;-84
2021/12/18 01:51:45;;;;;;;9.63;5.70;;;8.60;99.90;;;;;;5079254;28;20724;-82
2021/12/18 01:54:11;;;;;;;7.93;4.83;;;8.60;99.90;;;;;;5083049;28;20660;-81
2021/12/18 01:56:40;;;;;;;11.07;6.40;;;8.60;99.90;;;;;;5079164;28;20678;-79
2021/12/18 01:59:09;;;;;;;8.70;5.90;;;8.70;99.90;;;;;;5073078;28;21454;-79
2021/12/18 02:01:37;;;;;;;9.77;6.00;;;8.80;99.90;;;;;;5072747;28;20712;-79
2021/12/18 02:04:05;;;;;;;10.07;5.70;;;8.60;99.90;;;;;;5052547;28;21049;-80
2021/12/18 02:06:31;;;;;;;12.87;5.83;;;8.60;99.90;;;;;;5075074;28;20597;-79
2021/12/18 02:08:57;;;;;;;7.87;4.50;;;8.70;99.90;;;;;;5073819;28;20605;-80
2021/12/18 02:22:02;;;;;;;5.87;3.57;;;8.60;99.90;;;;;;5072150;28;20577;-79
2021/12/18 02:24:32;;;;;;;4.57;2.80;;;8.60;99.90;;;;;;5050148;28;20766;-79
2021/12/18 02:27:00;;;;;;;6.60;3.90;;;8.60;99.90;;;;;;5067624;28;20951;-79
2021/12/18 02:29:29;;;;;;;6.83;3.60;;;8.50;99.90;;;;;;5071753;28;20643;-80
2021/12/18 02:31:55;;;;;;;5.77;3.67;;;8.60;99.90;;;;;;5068618;28;21175;-80
2021/12/18 02:34:27;;;;;;;5.33;3.90;;;8.50;99.90;;;;;;5083044;28;20649;-81
2021/12/18 02:37:03;;;;;;;6.83;4.10;;;8.50;99.90;;;;;;5071379;28;20198;-80
2021/12/18 02:42:09;;;;;;;6.30;4.20;;;8.60;99.90;;;;;;5075631;28;20617;-80
2021/12/18 02:44:39;;;;;;;5.90;3.60;;;8.60;99.90;;;;;;5078486;28;20692;-81
2021/12/18 02:47:05;;;;;;;7.63;3.50;;;8.60;99.90;;;;;;5079512;28;20608;-79
2021/12/18 02:49:31;;;;;;;4.83;3.47;;;8.60;99.90;;;;;;5073709;28;20684;-80
2021/12/18 02:51:57;;;;;;;5.20;3.23;;;8.60;99.90;;;;;;5070179;28;20637;-79
2021/12/18 02:54:24;;;;;;;6.07;3.77;;;8.60;99.90;;;;;;5051564;28;20211;-79
2021/12/18 02:56:50;;;;;;;4.67;2.80;;;8.60;99.90;;;;;;5069443;28;20812;-81
2021/12/18 02:59:16;;;;;;;4.60;3.17;;;8.60;99.90;;;;;;5066937;28;20707;-79
2021/12/18 03:01:42;;;;;;;5.53;3.10;;;8.60;99.90;;;;;;5071216;28;20820;-78
2021/12/18 03:04:18;;;;;;;4.53;2.80;;;8.60;99.90;;;;;;5049269;28;20717;-79
2021/12/18 03:06:47;;;;;;;6.23;3.63;;;8.70;99.90;;;;;;5069794;28;20167;-81
2021/12/18 03:27:41;;;;;;;5.37;3.60;;;8.60;99.90;;;;;;5068223;28;20625;-79
2021/12/18 03:30:08;;;;;;;6.90;4.47;;;8.70;99.90;;;;;;5065218;28;20637;-80
2021/12/18 03:32:33;;;;;;;5.70;3.63;;;8.70;99.90;;;;;;5071567;28;20427;-80
2021/12/18 03:34:59;;;;;;;6.13;3.67;;;8.70;99.90;;;;;;5055854;28;20987;-78
2021/12/18 03:37:24;;;;;;;5.17;3.30;;;8.60;99.90;;;;;;5075745;28;20179;-79
2021/12/18 03:39:50;;;;;;;6.20;4.10;;;8.60;99.90;;;;;;5071280;28;20341;-78
2021/12/18 03:42:16;;;;;;;4.20;3.30;;;8.60;99.90;;;;;;5075093;28;20203;-80
2021/12/18 03:44:42;;;;;;;5.40;3.40;;;8.60;99.90;;;;;;5072129;28;20235;-79
2021/12/18 03:47:10;;;;;;;4.20;2.87;;;8.60;99.90;;;;;;5053399;28;20597;-81
2021/12/18 03:49:36;;;;;;;3.20;2.43;;;8.60;99.90;;;;;;5073544;28;20649;-79
2021/12/18 03:52:03;;;;;;;6.93;3.10;;;8.70;99.90;;;;;;5072307;28;21153;-81
2021/12/18 03:54:28;;;;;;;5.73;3.23;;;8.70;99.90;;;;;;5075308;28;20206;-83
2021/12/18 03:56:54;;;;;;;5.17;3.00;;;8.70;99.90;;;;;;5052929;28;20645;-79
2021/12/18 03:59:20;;;;;;;6.03;3.27;;;8.80;99.90;;;;;;5070500;28;20521;-80
2021/12/18 04:01:51;;;;;;;5.30;3.00;;;8.80;99.90;;;;;;5056694;28;20196;-79
2021/12/18 04:04:16;;;;;;;4.30;3.20;;;8.70;99.90;;;;;;5065472;28;20226;-82
2021/12/18 04:06:43;;;;;;;4.73;2.90;;;8.70;99.90;;;;;;5072515;28;20608;-82
2021/12/18 04:09:12;;;;;;;4.83;3.50;;;8.70;99.90;;;;;;5053110;28;20248;-80
2021/12/18 04:11:42;;;;;;;4.07;2.40;;;8.70;99.90;;;;;;5070759;28;20739;-79
2021/12/18 04:14:08;;;;;;;3.47;2.17;;;8.70;99.90;;;;;;5071559;28;21200;-79
2021/12/18 04:16:34;;;;;;;4.33;3.07;;;8.70;99.90;;;;;;5071385;28;20620;-79
2021/12/18 04:19:01;;;;;;;2.93;2.17;;;8.70;99.90;;;;;;5069092;28;20602;-80
2021/12/18 04:21:31;;;;;;;4.50;3.23;;;8.70;99.90;;;;;;5056062;28;20629;-81
2021/12/18 04:23:57;;;;;;;4.30;2.67;;;8.70;99.90;;;;;;5080395;28;20669;-82
2021/12/18 04:26:23;;;;;;;4.50;2.80;;;8.80;99.90;;;;;;5081708;28;20652;-81
2021/12/18 04:28:49;;;;;;;4.07;3.43;;;8.70;99.90;;;;;;5085131;28;20632;-80
2021/12/18 04:31:15;;;;;;;4.77;2.73;;;8.80;99.90;;;;;;5084951;28;22509;-83
2021/12/18 04:33:41;;;;;;;5.53;3.93;;;8.70;99.90;;;;;;5075659;28;20256;-79
2021/12/18 04:36:07;;;;;;;4.90;3.40;;;8.70;99.90;;;;;;5077419;28;20648;-79
2021/12/18 04:38:33;;;;;;;6.67;3.97;;;8.80;99.90;;;;;;5056892;28;20252;-79
2021/12/18 04:40:59;;;;;;;5.20;4.10;;;8.70;99.90;;;;;;5076271;28;20661;-83
2021/12/18 04:43:32;;;;;;;4.73;3.40;;;8.80;99.90;;;;;;5077153;28;20183;-80
2021/12/18 04:45:58;;;;;;;5.03;3.37;;;8.80;99.90;;;;;;5079962;28;20620;-79
2021/12/18 04:48:23;;;;;;;5.60;3.53;;;8.80;99.90;;;;;;5079228;28;20701;-79
2021/12/18 04:50:51;;;;;;;4.20;2.90;;;8.80;99.90;;;;;;5057035;28;20214;-79
2021/12/18 04:53:17;;;;;;;3.90;2.80;;;8.80;99.90;;;;;;5078994;28;20307;-79
2021/12/18 04:55:42;;;;;;;4.33;2.90;;;8.80;99.90;;;;;;5076909;28;20740;-82
2021/12/18 04:58:08;;;;;;;3.27;2.50;;;8.80;99.90;;;;;;5078169;28;20189;-79
2021/12/18 05:00:38;;;;;;;4.47;2.53;;;8.80;99.90;;;;;;5077781;28;20249;-80
2021/12/18 05:03:11;;;;;;;4.77;2.60;;;8.80;99.90;;;;;;5074451;28;20186;-79
2021/12/18 05:05:37;;;;;;;4.53;3.20;;;8.80;99.90;;;;;;5072885;28;21006;-79
2021/12/18 05:08:06;;;;;;;5.30;3.60;;;8.70;99.90;;;;;;5076134;28;20636;-80
2021/12/18 05:10:32;;;;;;;5.23;3.27;;;8.70;99.90;;;;;;5054411;28;20219;-79
2021/12/18 05:12:59;;;;;;;3.10;2.43;;;8.80;99.90;;;;;;5074309;28;20607;-79
2021/12/18 05:15:26;;;;;;;4.67;2.90;;;8.90;99.90;;;;;;5075834;28;20658;-81
2021/12/18 05:17:51;;;;;;;3.07;2.20;;;8.80;99.90;;;;;;5074778;28;21203;-80
2021/12/18 05:20:17;;;;;;;3.30;2.10;;;8.80;99.90;;;;;;5083645;28;21038;-82
2021/12/18 05:22:43;;;;;;;3.50;2.03;;;8.80;99.90;;;;;;5064493;28;20413;-81
2021/12/18 05:25:09;;;;;;;2.77;1.90;;;8.70;99.90;;;;;;5066121;28;21010;-80
2021/12/18 05:27:36;;;;;;;1.87;1.67;;;8.80;99.90;;;;;;5087866;28;20183;-80
2021/12/18 05:30:09;;;;;;;2.10;1.53;;;8.70;99.90;;;;;;5078512;28;20652;-79
2021/12/18 05:32:34;;;;;;;2.63;1.80;;;8.60;99.90;;;;;;5070583;28;20720;-80
2021/12/18 05:35:02;;;;;;;2.60;1.40;;;8.70;99.90;;;;;;5087256;28;20669;-82
2021/12/18 05:37:43;;;;;;;1.40;1.30;;;8.60;99.90;;;;;;5083121;28;20192;-80
2021/12/18 05:40:10;;;;;;;2.30;1.50;;;8.70;99.90;;;;;;5081582;28;21001;-79
2021/12/18 05:42:35;;;;;;;1.80;1.50;;;8.70;99.90;;;;;;5067752;28;21281;-80
2021/12/18 05:45:01;;;;;;;1.77;1.50;;;8.70;99.90;;;;;;5081473;28;20671;-79
2021/12/18 05:47:27;;;;;;;2.50;2.00;;;8.60;99.90;;;;;;5067998;28;20198;-80
2021/12/18 05:49:52;;;;;;;3.13;2.00;;;8.60;99.90;;;;;;5089708;28;20633;-80
2021/12/18 05:52:18;;;;;;;3.70;2.80;;;8.60;99.90;;;;;;5088810;28;20742;-78
2021/12/18 05:54:43;;;;;;;3.27;2.73;;;8.60;99.90;;;;;;5066985;28;20302;-80
2021/12/18 05:57:14;;;;;;;3.90;3.43;;;8.60;99.90;;;;;;5075965;28;20195;-79
2021/12/18 05:59:41;;;;;;;4.23;3.30;;;8.50;99.90;;;;;;5073469;28;20690;-79
2021/12/18 06:02:06;;;;;;;4.60;3.13;;;8.50;99.90;;;;;;5051615;28;21220;-78
2021/12/18 06:04:34;;;;;;;4.30;3.23;;;8.50;99.90;;;;;;5066375;28;20694;-79
2021/12/18 06:07:04;;;;;;;4.03;3.43;;;8.50;99.90;;;;;;5071431;28;20180;-80
2021/12/18 06:09:31;;;;;;;4.67;3.20;;;8.60;99.90;;;;;;5055827;28;20991;-79
2021/12/18 06:12:00;;;;;;;3.43;2.97;;;8.60;99.90;;;;;;5071971;28;20622;-79
2021/12/18 06:14:29;;;;;;;3.30;3.00;;;8.60;99.90;;;;;;5073138;28;21018;-79
2021/12/18 06:16:54;;;;;;;2.43;2.20;;;8.60;99.90;;;;;;5075009;28;20632;-80
2021/12/18 06:19:22;;;;;;;3.13;1.60;;;8.60;99.90;;;;;;5054935;28;21199;-79
2021/12/18 06:21:48;;;;;;;1.50;1.40;;;8.60;99.90;;;;;;5074917;28;20182;-81
2021/12/18 06:24:13;;;;;;;1.33;1.23;;;8.50;99.90;;;;;;5074029;28;20660;-81
2021/12/18 06:26:46;;;;;;;2.07;1.20;;;8.50;99.90;;;;;;5076406;28;20191;-79
2021/12/18 06:29:12;;;;;;;0.90;0.90;;;8.60;99.90;;;;;;5079564;28;20176;-80
2021/12/18 06:31:39;;;;;;;1.10;0.87;;;8.50;99.90;;;;;;5088390;28;20606;-80
2021/12/18 06:34:12;;;;;;;1.30;1.20;;;8.50;99.90;;;;;;5090202;28;20755;-80
2021/12/18 06:36:38;;;;;;;1.47;1.30;;;8.50;99.90;;;;;;5076370;28;20588;-79
2021/12/18 06:39:04;;;;;;;2.00;1.80;;;8.40;99.90;;;;;;5057110;28;20636;-80
2021/12/18 06:41:30;;;;;;;1.53;1.17;;;8.40;99.90;;;;;;5075783;28;20700;-80
2021/12/18 06:43:56;;;;;;;1.40;1.30;;;8.40;99.90;;;;;;5056036;28;20758;-79
2021/12/18 06:46:22;;;;;;;1.37;1.20;;;8.50;99.90;;;;;;5071079;28;20198;-79
2021/12/18 06:48:53;;;;;;;1.50;1.13;;;8.50;99.90;;;;;;5074770;28;20191;-80
2021/12/18 06:51:19;;;;;;;1.80;1.20;;;8.40;99.90;;;;;;5084799;28;20286;-80
2021/12/18 06:53:48;;;;;;;1.50;1.40;;;8.40;99.90;;;;;;5085206;28;21205;-79
2021/12/18 06:56:13;;;;;;;1.60;1.43;;;8.50;99.90;;;;;;5075040;28;20797;-81
2021/12/18 06:58:40;;;;;;;3.47;1.90;;;8.50;99.90;;;;;;5088603;28;20712;-80
2021/12/18 07:01:05;;;;;;;1.70;1.60;;;8.50;99.90;;;;;;5087575;28;20629;-80
2021/12/18 07:03:33;;;;;;;1.97;1.40;;;8.80;99.90;;;;;;5081568;28;20639;-82
2021/12/18 07:05:59;;;;;;;1.40;1.30;;;8.50;99.90;;;;;;5040451;28;20194;-80
2021/12/18 07:08:25;;;;;;;2.13;1.97;;;8.40;99.90;;;;;;5063350;28;21326;-79
2021/12/18 07:10:51;;;;;;;2.63;2.20;;;8.40;99.90;;;;;;5072200;28;20717;-79
2021/12/18 07:13:17;;;;;;;3.17;2.20;;;8.50;99.90;;;;;;5065761;28;20536;-79
2021/12/18 07:15:42;;;;;;;3.17;1.90;;;8.40;99.90;;;;;;5071314;28;20215;-80
2021/12/18 07:18:08;;;;;;;4.60;3.03;;;8.40;99.90;;;;;;5076300;28;20191;-80
2021/12/18 07:20:34;;;;;;;4.03;3.50;;;8.40;99.90;;;;;;5071431;28;20251;-81
2021/12/18 07:23:00;;;;;;;5.13;3.77;;;8.40;99.90;;;;;;5056939;28;20967;-79
2021/12/18 07:25:27;;;;;;;4.93;3.93;;;8.40;99.90;;;;;;5052141;28;20243;-80
2021/12/18 07:27:53;;;;;;;6.30;3.90;;;8.40;99.90;;;;;;5072665;28;20689;-80
2021/12/18 07:30:19;;;;;;;5.03;4.20;;;8.40;99.90;;;;;;5073727;28;20721;-80
2021/12/18 07:32:45;;;;;;;5.20;4.23;;;8.40;99.90;;;;;;5056614;28;20716;-79
2021/12/18 07:35:11;;;;;;;6.70;4.90;;;8.40;99.90;;;;;;5056052;28;20278;-79
2021/12/18 07:37:37;;;;;;;5.30;3.20;;;8.40;99.90;;;;;;5053512;28;20612;-80
2021/12/18 07:40:05;;;;;;;5.33;4.20;;;8.40;99.90;;;;;;5071005;28;20633;-79
2021/12/18 07:42:31;;;;;;;4.47;2.97;;;8.40;99.90;;;;;;5074945;28;20186;-79
2021/12/18 07:44:57;;;;;;;3.97;3.30;;;8.70;99.90;;;;;;5073551;28;20810;-79
2021/12/18 07:47:28;;;;;;;4.60;3.37;;;8.50;99.90;;;;;;5063613;28;20179;-80
2021/12/18 07:49:54;;;;;;;4.17;3.43;;;8.50;99.90;;;;;;5060314;28;20742;-78
2021/12/18 07:52:21;;;;;;;3.63;3.00;;;8.40;99.90;;;;;;5057922;28;20621;-79
2021/12/18 07:54:47;;;;;;;3.97;3.10;;;8.50;99.90;;;;;;5046900;28;20202;-79
2021/12/18 07:57:12;;;;;;;4.87;3.03;;;8.40;99.90;;;;;;5067110;28;20707;-79
2021/12/18 07:59:38;;;;;;;5.80;3.10;;;8.50;99.90;;;;;;5079151;28;20254;-81
2021/12/18 08:02:05;;;;;;;4.40;3.13;;;8.40;99.90;;;;;;5049932;28;20236;-79
2021/12/18 08:04:31;;;;;;;4.10;2.83;;;8.70;99.90;;;;;;5050898;28;20222;-79
2021/12/18 08:06:57;;;;;;;4.00;3.43;;;8.40;99.90;;;;;;5050808;28;20648;-81
2021/12/18 08:09:22;;;;;;;3.47;2.70;;;8.40;99.90;;;;;;5059473;28;20644;-79
2021/12/18 08:11:48;;;;;;;4.00;2.50;;;8.40;99.90;;;;;;5065522;28;20186;-79
2021/12/18 08:14:14;;;;;;;4.20;2.93;;;8.40;99.90;;;;;;5052100;28;20214;-81
2021/12/18 08:16:39;;;;;;;4.67;2.80;;;8.40;99.90;;;;;;5069636;28;20274;-79
2021/12/18 08:19:05;;;;;;;2.63;2.30;;;8.40;99.90;;;;;;5056717;28;20222;-78
2021/12/18 08:21:31;;;;;;;3.00;2.30;;;8.40;99.90;;;;;;5056991;28;20642;-76
2021/12/18 08:23:56;;;;;;;3.17;1.60;;;8.40;99.90;;;;;;5057364;28;20238;-77
2021/12/18 08:26:22;;;;;;;1.40;1.30;;;8.50;99.90;;;;;;5049368;28;20753;-86
2021/12/18 08:28:48;;;;;;;2.43;1.30;;;8.60;99.90;;;;;;5075760;28;20195;-82
2021/12/18 08:31:13;;;;;;;1.00;0.90;;;8.60;99.90;;;;;;5071212;28;20279;-83
2021/12/18 08:33:39;;;;;;;0.90;0.90;;;8.50;99.90;;;;;;5065010;28;20223;-82
2021/12/18 08:36:05;;;;;;;0.90;0.70;;;8.60;99.90;;;;;;5070517;28;20186;-81
2021/12/18 08:38:30;;;;;;;0.70;0.70;;;8.50;99.90;;;;;;5046624;28;20199;-79
2021/12/18 08:40:56;;;;;;;0.77;0.77;;;8.50;99.90;;;;;;5057378;28;20661;-81
2021/12/18 08:43:23;;;;;;;0.77;0.67;;;8.50;99.90;;;;;;5078493;28;20182;-80
2021/12/18 08:45:51;;;;;;;1.23;0.87;;;8.50;99.90;;;;;;5076608;28;20179;-80
2021/12/18 08:48:17;;;;;;;1.20;1.10;;;8.50;99.90;;;;;;5058344;28;21011;-81
2021/12/18 08:50:43;;;;;;;1.27;1.00;;;8.50;99.90;;;;;;5078578;28;20658;-81
2021/12/18 08:53:08;;;;;;;1.57;1.20;;;8.50;99.90;;;;;;5072643;28;20385;-81
2021/12/18 08:55:34;;;;;;;1.93;1.20;;;8.50;99.90;;;;;;5067822;28;20219;-81
2021/12/18 08:58:00;;;;;;;1.63;1.30;;;8.50;99.90;;;;;;5068219;28;20199;-79
2021/12/18 09:00:26;;;;;;;1.70;1.40;;;8.50;99.90;;;;;;5068660;28;20601;-79
2021/12/18 09:03:00;;;;;;;1.27;1.03;;;8.40;99.90;;;;;;5059671;28;20202;-80
2021/12/18 09:05:27;;;;;;;1.20;1.00;;;8.40;99.90;;;;;;5078682;28;20662;-80
2021/12/18 09:07:53;;;;;;;1.23;0.80;;;8.40;99.90;;;;;;5082356;28;20716;-78
2021/12/18 09:10:20;;;;;;;0.60;0.60;;;8.50;99.90;;;;;;5067214;28;20703;-81
2021/12/18 09:12:46;;;;;;;0.60;0.60;;;8.40;99.90;;;;;;5049204;28;20217;-80
2021/12/18 09:15:12;;;;;;;0.60;0.60;;;8.30;99.90;;;;;;5058243;28;21019;-80
2021/12/18 09:17:38;;;;;;;0.90;0.60;;;8.30;99.90;;;;;;5071692;28;20640;-81
2021/12/18 09:20:05;;;;;;;0.60;0.50;;;8.30;99.90;;;;;;5075297;28;21201;-80
2021/12/18 09:22:33;;;;;;;1.90;0.60;;;8.30;99.90;;;;;;5068534;28;20651;-79
2021/12/18 09:24:59;;;;;;;0.40;0.40;;;8.30;99.90;;;;;;5073674;28;20652;-80
2021/12/18 09:27:25;;;;;;;0.50;0.40;;;8.30;99.90;;;;;;5073124;28;20724;-79
2021/12/18 09:29:51;;;;;;;0.40;0.40;;;8.40;99.90;;;;;;5070612;28;20227;-81
2021/12/18 09:32:16;;;;;;;1.20;0.53;;;8.40;99.90;;;;;;5089087;28;20632;-80
2021/12/18 09:34:42;;;;;;;0.50;0.50;;;8.40;99.90;;;;;;5091225;28;20223;-82
2021/12/18 09:37:07;;;;;;;0.53;0.53;;;8.80;99.90;;;;;;5070275;28;20205;-81
2021/12/18 09:39:34;;;;;;;0.67;0.60;;;8.50;99.90;;;;;;5088204;28;20230;-81
2021/12/18 09:42:00;;;;;;;0.70;0.60;;;8.50;99.90;;;;;;5086677;28;20183;-80
2021/12/18 09:44:34;;;;;;;0.80;0.80;;;8.60;99.90;;;;;;5072603;28;20667;-81
2021/12/18 09:47:00;;;;;;;0.90;0.90;;;8.50;99.90;;;;;;5076931;28;20610;-84
2021/12/18 09:49:26;;;;;;;0.90;0.90;;;8.50;99.90;;;;;;5082734;28;20641;-81
2021/12/18 09:51:52;;;;;;;0.87;0.87;;;8.50;99.90;;;;;;5064923;28;21322;-80
2021/12/18 09:54:19;;;;;;;2.20;0.90;;;8.50;99.90;;;;;;5081304;28;20645;-80
2021/12/18 09:56:45;;;;;;;1.40;1.17;;;8.60;99.90;;;;;;5088906;28;20240;-79
2021/12/18 09:59:11;;;;;;;1.53;1.30;;;8.50;99.90;;;;;;5089152;28;20597;-79
2021/12/18 10:01:37;;;;;;;2.10;1.17;;;8.50;99.90;;;;;;5088481;28;20710;-79
2021/12/18 10:04:04;;;;;;;4.53;1.70;;;8.60;99.90;;;;;;5075224;28;20679;-79
2021/12/18 10:06:41;;;;;;;2.77;1.70;;;8.60;99.90;;;;;;5079532;28;20183;-80
2021/12/18 10:09:11;;;;;;;3.20;1.90;;;8.50;99.90;;;;;;5052833;28;20639;-79
2021/12/18 10:11:59;;;;;;;2.87;2.10;;;8.60;99.90;;;;;;5073625;28;20632;-79
2021/12/18 10:14:41;;;;;;;3.70;2.27;;;8.70;99.90;;;;;;5063950;28;20721;-79
2021/12/18 10:17:23;;;;;;;3.70;2.40;;;8.60;99.90;;;;;;5085822;28;20582;-81
2021/12/18 10:19:50;;;;;;;4.23;2.20;;;8.70;99.90;;;;;;5070129;28;21011;-79
2021/12/18 10:22:16;;;;;;;3.50;2.50;;;8.70;99.90;;;;;;5073980;28;20651;-79
2021/12/18 10:24:44;;;;;;;5.00;3.50;;;8.80;99.90;;;;;;5051604;28;20672;-81
2021/12/18 10:27:22;;;;;;;6.27;3.83;;;8.80;99.90;;;;;;5086093;28;20174;-82
2021/12/18 10:29:54;;;;;;;4.80;3.90;;;8.80;99.90;;;;;;5088216;28;20629;-82
2021/12/18 10:32:24;;;;;;;11.17;5.20;;;8.80;99.90;;;;;;5091869;28;20601;-80
2021/12/18 10:34:57;;;;;;;8.70;5.67;;;8.90;99.90;;;;;;5091655;28;20720;-81
2021/12/18 10:37:29;;;;;;;8.07;5.60;;;8.90;99.90;;;;;;5067452;28;20661;-84
2021/12/18 10:39:54;;;;;;;8.50;6.20;;;8.90;99.90;;;;;;5089763;28;20686;-80
2021/12/18 10:42:24;;;;;;;8.70;6.33;;;8.90;99.90;;;;;;5076212;28;20634;-82
2021/12/18 10:45:07;;;;;;;10.93;7.20;;;8.90;99.90;;;;;;5072842;28;20221;-81
2021/12/18 10:48:00;;;;;;;8.83;6.60;;;9.00;99.90;;;;;;5089384;28;21049;-81
2021/12/18 10:50:28;;;;;;;9.83;6.80;;;9.00;99.90;;;;;;5071203;28;20647;-79
2021/12/18 10:53:04;;;;;;;10.70;7.77;;;9.10;99.90;;;;;;5074322;28;20636;-79
2021/12/18 10:55:57;;;;;;;8.60;6.23;;;9.10;99.90;;;;;;5080219;28;20660;-83
2021/12/18 10:58:33;;;;;;;8.70;6.30;;;9.10;99.90;;;;;;5059798;28;20633;-80
2021/12/18 11:01:14;;;;;;;10.50;6.90;;;9.10;99.90;;;;;;5079063;28;20736;-81
2021/12/18 11:03:44;;;;;;;9.43;7.03;;;9.20;99.90;;;;;;5085125;28;20617;-80
2021/12/18 11:06:20;;;;;;;11.40;6.70;;;9.20;99.90;;;;;;5089174;28;21000;-81
2021/12/18 11:09:05;;;;;;;9.07;6.90;;;9.30;99.90;;;;;;5087674;28;20608;-81
2021/12/18 11:14:08;;;;;;;7.73;6.20;;;9.30;99.90;;;;;;5088897;28;20657;-80
2021/12/18 11:16:37;;;;;;;9.83;5.80;;;9.30;99.90;;;;;;5091553;28;20959;-80
2021/12/18 11:19:12;;;;;;;10.70;6.70;;;9.40;99.90;;;;;;5083094;28;20627;-80
2021/12/18 11:21:40;;;;;;;10.03;5.90;;;9.40;99.90;;;;;;5068608;28;20612;-82
2021/12/18 11:24:07;;;;;;;7.63;5.13;;;9.40;99.90;;;;;;5080124;28;20744;-82
2021/12/18 11:26:44;;;;;;;12.23;6.20;;;9.40;99.90;;;;;;5083270;28;20741;-80
2021/12/18 11:29:22;;;;;;;12.73;6.40;;;9.50;99.90;;;;;;5070479;28;20624;-81
2021/12/18 11:31:48;;;;;;;7.03;5.40;;;9.50;99.90;;;;;;5080045;28;20755;-84
2021/12/18 11:34:16;;;;;;;8.13;5.60;;;9.50;99.90;;;;;;5049930;28;21229;-79
2021/12/18 11:36:44;;;;;;;11.97;5.10;;;9.60;99.90;;;;;;5073822;28;20629;-84
2021/12/18 11:39:12;;;;;;;9.03;5.20;;;9.60;99.90;;;;;;5078843;28;21224;-81
2021/12/18 11:41:39;;;;;;;9.17;5.10;;;9.60;99.90;;;;;;5085489;28;20723;-81
2021/12/18 11:44:23;;;;;;;10.83;5.30;;;9.60;99.90;;;;;;5093581;28;20657;-80
2021/12/18 11:46:49;;;;;;;9.97;5.43;;;9.70;99.90;;;;;;5090093;28;20637;-80
2021/12/18 11:49:14;;;;;;;9.10;5.90;;;9.70;99.90;;;;;;5093312;28;20653;-82
2021/12/18 11:51:55;;;;;;;12.53;5.10;;;9.70;99.90;;;;;;5084518;28;20191;-81
2021/12/18 11:54:42;;;;;;;11.13;5.67;;;9.70;99.90;;;;;;5065549;28;20209;-83
2021/12/18 11:57:08;;;;;;;8.57;5.23;;;9.70;99.90;;;;;;5083410;28;20653;-83
2021/12/18 12:00:00;;;;;;;9.27;5.47;;;9.70;99.90;;;;;;5091601;28;21192;-82
2021/12/18 12:02:49;;;;;;;8.40;5.47;;;9.80;99.90;;;;;;5084112;28;20199;-84
2021/12/18 12:05:16;;;;;;;11.23;6.00;;;9.80;99.90;;;;;;5077365;28;20716;-85
2021/12/18 12:07:44;;;;;;;8.83;5.67;;;9.90;99.90;;;;;;5068499;28;20653;-80
2021/12/18 12:10:21;;;;;;;15.20;5.37;;;9.90;99.90;;;;;;5078142;28;20633;-79
2021/12/18 12:12:55;;;;;;;10.70;5.70;;;9.90;99.90;;;;;;5072347;28;20651;-80
2021/12/18 12:15:24;;;;;;;13.80;6.67;;;9.90;99.90;;;;;;5055790;28;20660;-81
2021/12/18 12:17:55;;;;;;;8.83;6.27;;;9.90;99.90;;;;;;5068715;28;20625;-80
2021/12/18 12:20:42;;;;;;;10.80;5.77;;;9.90;99.90;;;;;;5071632;28;20653;-80
2021/12/18 12:23:10;;;;;;;11.70;5.73;;;9.90;99.90;;;;;;5083485;28;21139;-81
2021/12/18 12:25:52;;;;;;;10.60;5.47;;;10.00;99.90;;;;;;5085516;28;20703;-79
2021/12/18 12:28:23;;;;;;;9.07;5.90;;;9.90;99.90;;;;;;5062809;28;22397;-79
2021/12/18 12:30:58;;;;;;;11.63;5.93;;;10.00;99.90;;;;;;5072633;28;21350;-80
2021/12/18 12:33:32;;;;;;;10.33;6.80;;;10.00;99.90;;;;;;5076627;28;20640;-81
2021/12/18 12:36:12;;;;;;;9.70;5.93;;;10.00;99.90;;;;;;5074207;28;20626;-83
2021/12/18 12:38:54;;;;;;;15.13;7.13;;;10.10;99.90;;;;;;5072399;28;20617;-85
2021/12/18 12:41:25;;;;;;;9.20;6.17;;;10.10;99.90;;;;;;5073348;28;20856;-84
2021/12/18 12:43:51;;;;;;;8.93;5.03;;;10.20;99.90;;;;;;5086210;28;20637;-85
2021/12/18 12:46:19;;;;;;;8.77;4.97;;;10.20;99.90;;;;;;5075582;28;20645;-82
2021/12/18 12:49:08;;;;;;;11.57;5.40;;;10.20;99.90;;;;;;5089440;28;20677;-81
2021/12/18 12:52:05;;;;;;;10.10;5.40;;;10.30;99.90;;;;;;5074695;28;20760;-86
2021/12/18 12:54:51;;;;;;;7.83;5.40;;;10.40;99.90;;;;;;5049841;28;20644;-79
2021/12/18 12:57:27;;;;;;;9.30;5.43;;;10.40;99.90;;;;;;5052756;28;20657;-79
2021/12/18 12:59:59;;;;;;;9.03;4.83;;;10.50;99.90;;;;;;5076877;28;20629;-85
2021/12/18 13:02:30;;;;;;;11.90;5.27;;;10.50;99.90;;;;;;5068001;28;20640;-84
2021/12/18 13:05:01;;;;;;;9.07;5.57;;;10.50;99.90;;;;;;5062263;28;20672;-82
2021/12/18 13:07:27;;;;;;;9.00;5.30;;;10.60;99.90;;;;;;5078527;28;20629;-80
2021/12/18 13:09:52;;;;;;;9.77;5.77;;;10.60;99.90;;;;;;5060538;28;20634;-82
2021/12/18 13:12:18;;;;;;;7.27;4.57;;;10.70;99.90;;;;;;5089134;28;20206;-85
2021/12/18 13:14:45;;;;;;;10.30;6.03;;;10.60;99.90;;;;;;5085393;28;20675;-84
2021/12/18 13:17:22;;;;;;;8.97;5.23;;;10.60;99.90;;;;;;5080113;28;20184;-82
2021/12/18 13:19:59;;;;;;;8.53;4.07;;;10.70;99.90;;;;;;5082633;28;20657;-87
2021/12/18 13:22:30;;;;;;;16.30;5.27;;;10.70;99.90;;;;;;5088153;28;20707;-85
2021/12/18 13:25:14;;;;;;;9.10;5.60;;;10.60;99.90;;;;;;5090286;28;20674;-81
2021/12/18 13:28:00;;;;;;;11.00;4.83;;;10.60;99.90;;;;;;5075906;28;20612;-82
2021/12/18 13:30:26;;;;;;;6.47;4.20;;;10.70;99.90;;;;;;5076414;28;20624;-83
2021/12/18 13:32:57;;;;;;;9.00;5.13;;;10.70;99.90;;;;;;5073455;28;20791;-83
2021/12/18 13:35:25;;;;;;;7.37;4.47;;;10.80;99.90;;;;;;5090508;28;20218;-84
2021/12/18 13:38:01;;;;;;;16.30;4.87;;;10.70;99.90;;;;;;5063791;28;20676;-82
2021/12/18 13:40:28;;;;;;;9.97;4.37;;;10.70;99.90;;;;;;5082785;28;20632;-83
2021/12/18 13:43:15;;;;;;;7.73;4.47;;;10.70;99.90;;;;;;5084093;28;20927;-85
2021/12/18 13:46:10;;;;;;;13.03;4.70;;;10.80;99.90;;;;;;5086371;28;20672;-85
2021/12/18 13:48:44;;;;;;;9.30;4.00;;;10.80;99.90;;;;;;5064875;28;20666;-81
2021/12/18 13:51:18;;;;;;;11.83;4.80;;;10.70;99.90;;;;;;5085924;28;20658;-86
2021/12/18 13:54:04;;;;;;;6.93;3.53;;;10.70;99.90;;;;;;5082586;28;20648;-84